M/V Tuna — XUGC9 — position and weather

sailwx.info

Track history (hours):
 
Tides and Currents Weather Stations Pressure Air Temp Water Temp Dewpoint Dewpoint Depression Visibility Wind Speed Wind Dir Waves Ship Positions

M/V Tuna

Last reported at 2015-Apr-21 04:13 UTC. Time now 2015-Apr-21 05:07 UTC.
Position N 40°46' E 029°27'.

Length 114 m; draft 3.6 m.

Type: Cargo ship. MMSI: 514778000.

Date/timePositionNaut miles runAvg speedWind from/ knotsBaromVisibWave heightAir tempDewpointWater temp
2015-Apr-21 04:13N 40°46' E 029°27'4 6.0
2015-Apr-21 03:33N 40°44' E 029°23'7 7.0
2015-Apr-21 02:33N 40°46' E 029°14'7 7.5
2015-Apr-21 01:33N 40°49' E 029°05'7 6.8
2015-Apr-21 00:34N 40°53' E 028°57'  
2015-Apr-12 10:30N 42°21' E 029°25'23 7.2
2015-Apr-12 07:15N 41°58' E 029°20'5 7.1
2015-Apr-12 06:33N 41°53' E 029°19'62 3.1
2015-Apr-11 10:33N 40°52' E 029°11'0 0.0
2015-Apr-11 09:33N 40°52' E 029°11'0 0.0
2015-Apr-11 08:33N 40°52' E 029°11'0 0.1
2015-Apr-11 07:33N 40°52' E 029°11'0 0.0
2015-Apr-11 06:33N 40°52' E 029°11'0 0.0
2015-Apr-11 05:33N 40°52' E 029°11'0 0.0
2015-Apr-11 04:33N 40°52' E 029°11'  
Track history (hours):
 
Tides and Currents Weather Stations Pressure Air Temp Water Temp Dewpoint Dewpoint Depression Visibility Wind Speed Wind Dir Waves Ship Positions

M/V Tuna

Last reported at 2015-Apr-21 04:13 UTC. Time now 2015-Apr-21 05:07 UTC.
Position N 40°46' E 029°27'.

Length 114 m; draft 3.6 m.

Type: Cargo ship. MMSI: 514778000.

Date/timePositionNaut miles runAvg speedWind from/ knotsBaromVisibWave heightAir tempDewpointWater temp
2015-Apr-21 04:13N 40°46' E 029°27'4 6.0
2015-Apr-21 03:33N 40°44' E 029°23'7 7.0
2015-Apr-21 02:33N 40°46' E 029°14'7 7.5
2015-Apr-21 01:33N 40°49' E 029°05'7 6.8
2015-Apr-21 00:34N 40°53' E 028°57'  
2015-Apr-12 10:30N 42°21' E 029°25'23 7.2
2015-Apr-12 07:15N 41°58' E 029°20'5 7.1
2015-Apr-12 06:33N 41°53' E 029°19'62 3.1
2015-Apr-11 10:33N 40°52' E 029°11'0 0.0
2015-Apr-11 09:33N 40°52' E 029°11'0 0.0
2015-Apr-11 08:33N 40°52' E 029°11'0 0.1
2015-Apr-11 07:33N 40°52' E 029°11'0 0.0
2015-Apr-11 06:33N 40°52' E 029°11'0 0.0
2015-Apr-11 05:33N 40°52' E 029°11'0 0.0
2015-Apr-11 04:33N 40°52' E 029°11'  

Dump ship's entire track history